createdAt,value
2022-10-30T00:00:41.806Z,100225.47
2022-10-30T00:03:15.731Z,100230.75
2022-10-30T00:05:44.333Z,100232.66
2022-10-30T00:08:16.017Z,100240.63
2022-10-30T00:10:43.280Z,100236.38
2022-10-30T00:13:10.717Z,100237.34
2022-10-30T00:15:38.180Z,100237.34
2022-10-30T00:18:05.451Z,100242.75
2022-10-30T00:20:32.351Z,100245.41
2022-10-30T00:22:59.340Z,100257.00
2022-10-30T00:25:26.666Z,100252.75
2022-10-30T00:27:53.456Z,100254.56
2022-10-30T00:30:20.292Z,100249.25
2022-10-30T00:32:47.087Z,100248.38
2022-10-30T00:35:13.958Z,100243.19
2022-10-30T00:37:40.837Z,100232.78
2022-10-30T00:40:08.295Z,100237.22
2022-10-30T00:42:35.183Z,100235.53
2022-10-30T00:45:02.040Z,100234.66
2022-10-30T00:47:36.260Z,100241.88
2022-10-30T00:50:06.348Z,100241.03
2022-10-30T00:52:38.924Z,100240.22
2022-10-30T00:55:14.365Z,100248.19
2022-10-30T00:57:42.495Z,100235.84
2022-10-30T01:00:10.907Z,100232.13
2022-10-30T01:02:38.746Z,100233.19
2022-10-30T01:05:07.063Z,100241.16
2022-10-30T01:07:33.975Z,100241.16
2022-10-30T01:10:01.262Z,100242.09
2022-10-30T01:12:28.197Z,100242.09
2022-10-30T01:14:58.188Z,100230.66
2022-10-30T01:18:09.260Z,100219.31
2022-10-30T01:20:36.026Z,100221.09
2022-10-30T01:23:17.719Z,100234.38
2022-10-30T01:26:06.880Z,100230.03
2022-10-30T01:28:39.534Z,100235.34
2022-10-30T01:31:21.842Z,100239.78
2022-10-30T01:34:06.934Z,100239.78
2022-10-30T01:36:49.619Z,100239.91
2022-10-30T01:39:22.994Z,100247.00
2022-10-30T01:41:49.966Z,100243.50
2022-10-30T01:44:26.265Z,100240.13
2022-10-30T01:46:56.033Z,100233.84
2022-10-30T01:49:28.815Z,100237.47
2022-10-30T01:51:58.611Z,100235.63
2022-10-30T01:54:46.928Z,100237.47
2022-10-30T01:57:35.124Z,100229.72
2022-10-30T02:00:10.723Z,100243.94
2022-10-30T02:02:37.775Z,100258.03
2022-10-30T02:05:07.839Z,100251.88
2022-10-30T02:07:36.619Z,100257.19
2022-10-30T02:10:05.400Z,100262.50
2022-10-30T02:12:32.365Z,100266.84
2022-10-30T02:15:01.017Z,100258.97
2022-10-30T02:17:28.593Z,100257.41
2022-10-30T02:19:55.564Z,100264.41
2022-10-30T02:22:22.647Z,100258.25
2022-10-30T02:24:49.501Z,100244.34
2022-10-30T02:27:16.788Z,100246.91
2022-10-30T02:29:43.640Z,100237.16
2022-10-30T02:32:10.488Z,100233.88
2022-10-30T02:34:37.443Z,100228.56
2022-10-30T02:37:04.255Z,100229.41
2022-10-30T02:39:31.085Z,100240.97
2022-10-30T02:41:57.890Z,100235.66
2022-10-30T02:44:24.684Z,100233.00
2022-10-30T02:46:51.478Z,100239.28
2022-10-30T02:49:18.335Z,100248.91
2022-10-30T02:51:45.100Z,100243.59
2022-10-30T02:54:11.943Z,100245.41
2022-10-30T02:56:41.168Z,100246.47
2022-10-30T02:59:08.117Z,100249.97
2022-10-30T03:01:35.069Z,100246.47
2022-10-30T03:04:02.018Z,100242.16
2022-10-30T03:06:28.864Z,100242.16
2022-10-30T03:08:55.670Z,100243.09
2022-10-30T03:11:22.476Z,100240.56
2022-10-30T03:13:52.404Z,100231.75
2022-10-30T03:16:22.413Z,100235.34
2022-10-30T03:18:50.265Z,100223.88
2022-10-30T03:21:19.732Z,100229.19
2022-10-30T03:23:46.836Z,100229.19
2022-10-30T03:26:13.717Z,100225.72
2022-10-30T03:28:40.612Z,100217.84
2022-10-30T03:31:10.200Z,100225.81
2022-10-30T03:33:38.041Z,100229.44
2022-10-30T03:36:07.021Z,100228.56
2022-10-30T03:38:33.871Z,100224.13
2022-10-30T03:41:01.034Z,100228.56
2022-10-30T03:43:28.031Z,100226.00
2022-10-30T03:45:56.547Z,100219.97
2022-10-30T03:48:25.461Z,100218.19
2022-10-30T03:50:56.875Z,100217.44
2022-10-30T03:53:26.456Z,100211.16
2022-10-30T03:55:57.395Z,100209.50
2022-10-30T03:58:24.199Z,100212.16
2022-10-30T04:00:51.097Z,100209.50
2022-10-30T04:03:17.906Z,100204.28
2022-10-30T04:05:44.818Z,100212.22
2022-10-30T04:08:14.002Z,100208.72
2022-10-30T04:10:45.239Z,100208.84
2022-10-30T04:13:14.249Z,100206.94
2022-10-30T04:15:42.154Z,100212.34
2022-10-30T04:18:12.389Z,100213.19
2022-10-30T04:20:40.034Z,100207.13
2022-10-30T04:23:09.345Z,100204.41
2022-10-30T04:25:36.889Z,100206.31
2022-10-30T04:28:04.410Z,100210.84
2022-10-30T04:30:35.492Z,100202.81
2022-10-30T04:33:03.514Z,100202.91
2022-10-30T04:35:32.401Z,100187.84
2022-10-30T04:38:04.455Z,100178.31
2022-10-30T04:40:33.836Z,100180.88
2022-10-30T04:43:01.238Z,100182.56
2022-10-30T04:45:28.206Z,100181.69
2022-10-30T04:48:04.780Z,100181.91
2022-10-30T04:50:32.686Z,100191.69
2022-10-30T04:53:05.227Z,100181.09
2022-10-30T04:55:32.924Z,100185.53
2022-10-30T04:58:00.856Z,100181.16
2022-10-30T05:00:28.050Z,100174.06
2022-10-30T05:02:55.221Z,100180.31
2022-10-30T05:05:22.127Z,100176.72
2022-10-30T05:07:48.994Z,100195.28
2022-10-30T05:10:17.256Z,100192.75
2022-10-30T05:12:45.328Z,100188.38
2022-10-30T05:15:13.581Z,100194.41
2022-10-30T05:17:41.085Z,100190.19
2022-10-30T05:20:08.731Z,100191.97
2022-10-30T05:22:35.595Z,100199.09
2022-10-30T05:25:02.479Z,100196.47
2022-10-30T05:27:29.345Z,100192.09
2022-10-30T05:29:56.482Z,100189.53
2022-10-30T05:32:23.338Z,100194.84
2022-10-30T05:34:50.185Z,100189.53
2022-10-30T05:37:17.002Z,100193.03
2022-10-30T05:39:43.874Z,100190.50
2022-10-30T05:42:13.703Z,100182.56
2022-10-30T05:44:59.853Z,100185.22
2022-10-30T05:47:27.783Z,100179.19
2022-10-30T05:49:54.688Z,100188.06
2022-10-30T05:52:21.870Z,100184.47
2022-10-30T05:54:48.712Z,100176.53
2022-10-30T05:57:15.573Z,100168.56
2022-10-30T05:59:42.436Z,100168.56
2022-10-30T06:02:09.376Z,100176.63
2022-10-30T06:04:36.309Z,100170.47
2022-10-30T06:07:03.167Z,100172.16
2022-10-30T06:09:30.207Z,100168.56
2022-10-30T06:11:57.078Z,100168.56
2022-10-30T06:14:23.944Z,100153.75
2022-10-30T06:16:50.729Z,100167.81
2022-10-30T06:19:18.800Z,100165.06
2022-10-30T06:21:46.490Z,100165.16
2022-10-30T06:24:14.320Z,100165.06
2022-10-30T06:26:41.562Z,100159.66
2022-10-30T06:29:08.728Z,100160.63
2022-10-30T06:31:35.625Z,100150.84
2022-10-30T06:34:02.606Z,100161.38
2022-10-30T06:36:29.472Z,100160.50
2022-10-30T06:38:56.397Z,100148.19
2022-10-30T06:41:27.517Z,100157.13
2022-10-30T06:43:56.956Z,100165.81
2022-10-30T06:46:26.983Z,100150.75
2022-10-30T06:48:57.814Z,100173.63
2022-10-30T06:51:25.068Z,100173.56
2022-10-30T06:53:51.855Z,100167.53
2022-10-30T06:56:18.742Z,100173.63
2022-10-30T06:58:45.599Z,100171.00
2022-10-30T07:01:12.512Z,100166.44
2022-10-30T07:03:39.460Z,100176.94
2022-10-30T07:06:06.730Z,100168.97
2022-10-30T07:08:33.627Z,100167.31
2022-10-30T07:11:00.573Z,100180.44
2022-10-30T07:13:27.402Z,100183.94
2022-10-30T07:15:56.706Z,100182.16
2022-10-30T07:18:23.757Z,100187.53
2022-10-30T07:20:55.501Z,100183.81
2022-10-30T07:23:23.106Z,100190.81
2022-10-30T07:25:50.367Z,100185.53
2022-10-30T07:28:17.332Z,100199.50
2022-10-30T07:30:44.311Z,100184.47
2022-10-30T07:33:11.246Z,100188.91
2022-10-30T07:35:38.153Z,100178.09
2022-10-30T07:38:07.532Z,100185.13
2022-10-30T07:40:34.925Z,100181.41
2022-10-30T07:43:03.961Z,100177.69
2022-10-30T07:45:32.668Z,100173.13
2022-10-30T07:47:59.846Z,100177.47
2022-10-30T07:50:27.817Z,100175.56
2022-10-30T07:52:54.793Z,100183.38
2022-10-30T07:55:21.686Z,100176.28
2022-10-30T07:57:49.080Z,100170.03
2022-10-30T08:00:17.472Z,100177.03
2022-10-30T08:02:44.453Z,100172.56
2022-10-30T08:05:11.668Z,100173.22
2022-10-30T08:07:39.953Z,100171.28
2022-10-30T08:10:08.679Z,100169.38
2022-10-30T08:12:37.787Z,100164.81
2022-10-30T08:15:05.145Z,100166.50
2022-10-30T08:17:32.104Z,100170.88
2022-10-30T08:19:59.063Z,100166.28
2022-10-30T08:22:26.142Z,100160.88
2022-10-30T08:24:53.067Z,100159.06
2022-10-30T08:27:19.979Z,100159.81
2022-10-30T08:29:48.385Z,100150.06
2022-10-30T08:32:15.500Z,100151.75
2022-10-30T08:34:42.578Z,100152.59
2022-10-30T08:37:09.537Z,100149.19
2022-10-30T08:39:36.489Z,100143.91
2022-10-30T08:42:03.505Z,100146.53
2022-10-30T08:44:30.524Z,100154.50
2022-10-30T08:46:57.553Z,100152.81
2022-10-30T08:49:24.631Z,100158.13
2022-10-30T08:51:51.527Z,100154.50
2022-10-30T08:54:18.407Z,100155.69
2022-10-30T08:56:45.541Z,100158.97
2022-10-30T08:59:17.116Z,100156.53
2022-10-30T09:01:46.088Z,100164.50
2022-10-30T09:04:13.084Z,100160.91
2022-10-30T09:06:40.004Z,100163.47
2022-10-30T09:09:06.937Z,100161.75
2022-10-30T09:11:33.892Z,100157.41
2022-10-30T09:14:01.185Z,100157.53
2022-10-30T09:16:28.097Z,100154.13
2022-10-30T09:18:55.113Z,100154.13
2022-10-30T09:21:21.981Z,100147.97
2022-10-30T09:23:49.078Z,100154.22
2022-10-30T09:26:18.408Z,100142.91
2022-10-30T09:28:47.866Z,100145.66
2022-10-30T09:31:14.780Z,100146.69
2022-10-30T09:33:41.646Z,100148.31
2022-10-30T09:36:08.915Z,100149.13
2022-10-30T09:38:35.853Z,100152.63
2022-10-30T09:41:14.413Z,100157.09
2022-10-30T09:43:44.268Z,100152.75
2022-10-30T09:46:30.031Z,100145.66
2022-10-30T09:49:32.410Z,100143.00
2022-10-30T09:52:17.753Z,100144.81
2022-10-30T09:55:05.915Z,100142.16
2022-10-30T09:57:58.644Z,100143.97
2022-10-30T10:00:33.818Z,100138.66
2022-10-30T10:03:03.253Z,100143.97
2022-10-30T10:05:52.415Z,100133.22
2022-10-30T10:08:28.849Z,100136.84
2022-10-30T10:11:00.154Z,100136.75
2022-10-30T10:13:32.838Z,100129.00
2022-10-30T10:16:08.132Z,100128.06
2022-10-30T10:18:49.044Z,100129.75
2022-10-30T10:21:26.355Z,100127.84
2022-10-30T10:23:56.905Z,100134.81
2022-10-30T10:26:47.972Z,100132.94
2022-10-30T10:29:24.160Z,100134.72
2022-10-30T10:32:00.244Z,100135.59
2022-10-30T10:34:52.063Z,100146.19
2022-10-30T10:37:28.543Z,100136.53
2022-10-30T10:40:10.671Z,100131.22
2022-10-30T10:42:57.776Z,100124.22
2022-10-30T10:45:48.641Z,100126.88
2022-10-30T10:48:37.276Z,100120.84
2022-10-30T10:51:10.887Z,100138.44
2022-10-30T10:53:55.441Z,100132.16
2022-10-30T10:56:31.355Z,100124.22
2022-10-30T10:59:03.676Z,100122.75
2022-10-30T11:01:38.837Z,100124.47
2022-10-30T11:04:10.667Z,100114.69
2022-10-30T11:06:41.778Z,100117.44
2022-10-30T11:09:14.679Z,100115.75
2022-10-30T11:11:41.642Z,100109.59
2022-10-30T11:14:28.134Z,100115.88
2022-10-30T11:17:22.685Z,100110.34
2022-10-30T11:19:56.491Z,100109.59
2022-10-30T11:22:34.012Z,100115.53
2022-10-30T11:25:24.182Z,100113.72
2022-10-30T11:27:59.522Z,100120.63
2022-10-30T11:30:28.986Z,100120.75
2022-10-30T11:32:57.506Z,100122.63
2022-10-30T11:35:25.541Z,100126.13
2022-10-30T11:38:14.517Z,100116.59
2022-10-30T11:40:47.718Z,100122.97
2022-10-30T11:43:18.468Z,100120.31
2022-10-30T11:45:45.705Z,100110.66
2022-10-30T11:48:21.020Z,100112.56
2022-10-30T11:50:50.536Z,100106.53
2022-10-30T11:53:30.935Z,100091.59
2022-10-30T11:55:59.248Z,100084.50
2022-10-30T11:58:32.965Z,100075.91
2022-10-30T12:01:24.789Z,100079.75
2022-10-30T12:03:53.562Z,100083.97
2022-10-30T12:06:23.216Z,100082.25
2022-10-30T12:09:16.157Z,100081.44
2022-10-30T12:11:44.806Z,100084.09
2022-10-30T12:14:23.109Z,100083.97
2022-10-30T12:16:56.435Z,100070.50
2022-10-30T12:19:25.589Z,100072.09
2022-10-30T12:21:54.865Z,100072.72
2022-10-30T12:24:29.862Z,100065.50
2022-10-30T12:26:58.003Z,100075.25
2022-10-30T12:30:02.676Z,100069.00
2022-10-30T12:32:26.507Z,100074.91
2022-10-30T12:35:41.260Z,100065.06
2022-10-30T12:38:17.807Z,100069.31
2022-10-30T12:40:59.170Z,100075.34
2022-10-30T12:43:30.424Z,100069.69
2022-10-30T12:46:15.100Z,100072.13
2022-10-30T12:48:53.007Z,100068.41
2022-10-30T12:51:48.518Z,100060.09
2022-10-30T12:54:41.784Z,100040.59
2022-10-30T12:57:22.118Z,100037.59
2022-10-30T13:00:01.652Z,100036.66
2022-10-30T13:03:12.782Z,100040.66
2022-10-30T13:06:01.890Z,100033.09
2022-10-30T13:08:48.628Z,100031.72
2022-10-30T13:11:36.211Z,100027.78
2022-10-30T13:14:06.334Z,100026.56
2022-10-30T13:16:33.468Z,100027.28
2022-10-30T13:19:02.059Z,100023.47
2022-10-30T13:24:48.911Z,100008.16
2022-10-30T13:27:57.555Z,100012.13
2022-10-30T13:30:31.198Z,100009.38
2022-10-30T13:33:43.252Z,100005.41
2022-10-30T13:36:27.526Z,99999.75
2022-10-30T13:39:21.156Z,100010.28
2022-10-30T13:42:10.039Z,100008.22
2022-10-30T13:44:55.468Z,99998.31
2022-10-30T13:47:44.363Z,100000.72
2022-10-30T13:50:29.821Z,99992.53
2022-10-30T13:53:02.376Z,99986.03
2022-10-30T13:55:41.650Z,99969.13
2022-10-30T13:58:38.290Z,99968.91
2022-10-30T14:01:13.018Z,99973.25
2022-10-30T14:04:00.659Z,99959.84
2022-10-30T14:06:41.666Z,99965.63
2022-10-30T14:09:17.545Z,99956.59
2022-10-30T14:11:45.026Z,99949.72
2022-10-30T14:14:24.193Z,99956.81
2022-10-30T14:17:12.874Z,99944.75
2022-10-30T14:20:13.598Z,99939.47
2022-10-30T14:22:41.524Z,99929.78
2022-10-30T14:25:16.575Z,99931.34
2022-10-30T14:28:03.713Z,99924.38
2022-10-30T14:30:34.328Z,99922.19
2022-10-30T14:33:01.476Z,99916.03
2022-10-30T14:35:37.480Z,99919.31
2022-10-30T14:38:07.580Z,99910.25
2022-10-30T14:40:47.368Z,99915.81
2022-10-30T14:43:36.481Z,99904.69
2022-10-30T14:46:19.471Z,99900.81
2022-10-30T14:49:01.556Z,99898.41
2022-10-30T14:52:04.652Z,99898.88
2022-10-30T14:54:42.343Z,99899.47
2022-10-30T14:57:46.122Z,99900.91
2022-10-30T15:00:37.712Z,99890.91
2022-10-30T15:03:18.744Z,99886.44
2022-10-30T15:05:52.795Z,99892.06
2022-10-30T15:08:42.743Z,99904.38
2022-10-30T15:11:36.837Z,99904.13
2022-10-30T15:14:40.699Z,99902.91
2022-10-30T15:17:42.510Z,99898.19
2022-10-30T15:20:15.777Z,99897.94
2022-10-30T15:22:42.957Z,99898.63
2022-10-30T15:25:20.913Z,99897.53
2022-10-30T15:27:53.340Z,99891.13
2022-10-30T15:30:26.660Z,99882.19
2022-10-30T15:32:55.166Z,99886.88
2022-10-30T15:35:27.431Z,99882.97
2022-10-30T15:37:57.268Z,99873.75
2022-10-30T15:40:25.382Z,99875.31
2022-10-30T15:42:53.920Z,99876.88
2022-10-30T15:45:27.401Z,99877.44
2022-10-30T15:48:43.958Z,99872.97
2022-10-30T15:51:23.703Z,99868.66
2022-10-30T15:53:55.694Z,99863.19
2022-10-30T15:56:33.438Z,99847.22
2022-10-30T15:59:03.633Z,99844.16
2022-10-30T16:01:39.348Z,99845.84
2022-10-30T16:04:16.117Z,99842.81
2022-10-30T16:06:53.513Z,99840.28
2022-10-30T16:09:21.520Z,99860.56
2022-10-30T16:11:50.902Z,99850.94
2022-10-30T16:14:23.368Z,99856.94
2022-10-30T16:16:51.445Z,99860.25
2022-10-30T16:19:29.152Z,99861.09
2022-10-30T16:21:58.111Z,99861.66
2022-10-30T16:24:38.686Z,99855.47
2022-10-30T16:27:19.925Z,99857.19
2022-10-30T16:29:51.375Z,99845.44
2022-10-30T16:32:21.979Z,99859.72
2022-10-30T16:34:50.853Z,99844.97
2022-10-30T16:37:40.011Z,99864.19
2022-10-30T16:40:14.491Z,99860.44
2022-10-30T16:42:41.618Z,99867.41
2022-10-30T16:45:11.863Z,99866.06
2022-10-30T16:47:53.416Z,99874.78
2022-10-30T16:50:21.191Z,99867.03
2022-10-30T16:52:49.999Z,99871.25
2022-10-30T16:55:22.681Z,99882.75
2022-10-30T16:57:57.601Z,99877.81
2022-10-30T17:00:30.538Z,99872.63
2022-10-30T17:03:08.842Z,99862.09
2022-10-30T17:05:38.062Z,99872.75
2022-10-30T17:08:27.371Z,99873.84
2022-10-30T17:11:03.440Z,99876.25
2022-10-30T17:13:37.318Z,99877.09
2022-10-30T17:16:33.078Z,99893.66
2022-10-30T17:19:04.521Z,99886.50
2022-10-30T17:21:37.548Z,99887.59
2022-10-30T17:24:06.179Z,99886.91
2022-10-30T17:26:41.247Z,99890.56
2022-10-30T17:29:37.032Z,99900.34
2022-10-30T17:32:05.984Z,99898.06
2022-10-30T17:34:39.061Z,99907.03
2022-10-30T17:37:06.132Z,99914.53
2022-10-30T17:39:33.237Z,99902.69
2022-10-30T17:42:00.171Z,99918.94
2022-10-30T17:44:29.210Z,99909.25
2022-10-30T17:46:56.228Z,99915.53
2022-10-30T17:49:28.205Z,99910.97
2022-10-30T17:51:55.706Z,99922.81
2022-10-30T17:54:22.956Z,99919.69
2022-10-30T17:56:51.816Z,99919.69
2022-10-30T17:59:21.766Z,99931.03
2022-10-30T18:01:49.897Z,99932.28
2022-10-30T18:04:21.497Z,99937.59
2022-10-30T18:06:49.497Z,99941.47
2022-10-30T18:09:16.679Z,99950.44
2022-10-30T18:11:44.284Z,99937.38
2022-10-30T18:14:12.631Z,99948.75
2022-10-30T18:16:39.847Z,99941.72
2022-10-30T18:19:11.146Z,99939.91
2022-10-30T18:21:38.488Z,99936.16
2022-10-30T18:24:23.717Z,99937.16
2022-10-30T18:26:50.758Z,99939.91
2022-10-30T18:29:17.679Z,99939.91
2022-10-30T18:31:44.631Z,99941.72
2022-10-30T18:34:21.376Z,99933.63
2022-10-30T18:36:49.204Z,99937.97
2022-10-30T18:39:16.253Z,99935.06
2022-10-30T18:41:45.809Z,99943.16
2022-10-30T18:44:17.163Z,99955.16
2022-10-30T18:46:45.429Z,99955.16
2022-10-30T18:49:13.147Z,99963.53
2022-10-30T18:51:40.860Z,99964.47
2022-10-30T18:54:17.560Z,99963.53
2022-10-30T18:56:44.621Z,99968.31
2022-10-30T18:59:11.585Z,99969.16
2022-10-30T19:01:39.046Z,99981.97
2022-10-30T19:04:16.776Z,99976.88
2022-10-30T19:06:46.446Z,99973.81
2022-10-30T19:09:13.404Z,99979.59
2022-10-30T19:11:44.171Z,99984.31
2022-10-30T19:14:16.266Z,99983.81
2022-10-30T19:16:43.347Z,99983.16
2022-10-30T19:19:10.258Z,99995.25
2022-10-30T19:21:37.327Z,100000.31
2022-10-30T19:24:13.381Z,99994.00
2022-10-30T19:26:40.484Z,99998.97
2022-10-30T19:29:07.726Z,100006.09
2022-10-30T19:31:35.561Z,99997.97
2022-10-30T19:34:07.121Z,100003.19
2022-10-30T19:36:36.817Z,100010.88
2022-10-30T19:39:10.566Z,100012.34
2022-10-30T19:41:39.124Z,100013.63
2022-10-30T19:44:06.839Z,100011.09
2022-10-30T19:46:34.920Z,100011.44
2022-10-30T19:49:19.067Z,100020.81
2022-10-30T19:51:47.356Z,100020.00
2022-10-30T19:54:14.785Z,100017.19
2022-10-30T19:56:44.451Z,100028.50
2022-10-30T19:59:14.786Z,100033.38
2022-10-30T20:01:42.333Z,100033.28
2022-10-30T20:04:12.680Z,100034.38
2022-10-30T20:06:39.898Z,100030.06
2022-10-30T20:09:12.939Z,100036.47
2022-10-30T20:11:40.457Z,100038.28
2022-10-30T20:14:07.853Z,100031.81
2022-10-30T20:16:37.182Z,100040.16
2022-10-30T20:19:28.478Z,100043.06
2022-10-30T20:21:56.128Z,100049.63
2022-10-30T20:24:25.234Z,100041.63
2022-10-30T20:26:56.667Z,100044.69
2022-10-30T20:29:25.649Z,100054.47
2022-10-30T20:31:52.893Z,100058.22
2022-10-30T20:34:20.514Z,100062.22
2022-10-30T20:36:49.130Z,100065.81
2022-10-30T20:39:17.907Z,100050.13
2022-10-30T20:41:45.250Z,100067.91
2022-10-30T20:44:13.295Z,100078.81
2022-10-30T20:46:43.371Z,100070.22
2022-10-30T20:49:17.647Z,100076.63
2022-10-30T20:51:48.317Z,100066.09
2022-10-30T20:54:16.635Z,100069.75
2022-10-30T20:56:44.509Z,100070.84
2022-10-30T20:59:13.181Z,100072.66
2022-10-30T21:01:40.837Z,100071.06
2022-10-30T21:04:08.198Z,100080.25
2022-10-30T21:06:35.641Z,100090.06
2022-10-30T21:09:03.100Z,100089.47
2022-10-30T21:11:30.369Z,100085.38
2022-10-30T21:13:59.191Z,100093.59
2022-10-30T21:16:26.810Z,100094.78
2022-10-30T21:18:54.776Z,100097.94
2022-10-30T21:21:25.576Z,100096.50
2022-10-30T21:23:56.958Z,100100.47
2022-10-30T21:26:25.085Z,100098.53
2022-10-30T21:28:56.410Z,100109.28
2022-10-30T21:31:24.268Z,100112.91
2022-10-30T21:33:51.505Z,100118.72
2022-10-30T21:36:23.102Z,100123.28
2022-10-30T21:38:50.319Z,100125.34
2022-10-30T21:41:20.091Z,100129.09
2022-10-30T21:43:51.901Z,100130.19
2022-10-30T21:46:19.955Z,100141.94
2022-10-30T21:48:47.418Z,100137.72
2022-10-30T21:51:20.759Z,100146.91
2022-10-30T21:53:48.586Z,100149.56
2022-10-30T21:56:19.378Z,100159.69
2022-10-30T21:58:47.461Z,100162.44
2022-10-30T22:01:18.804Z,100157.50
2022-10-30T22:03:47.025Z,100168.34
2022-10-30T22:06:16.490Z,100168.34
2022-10-30T22:08:48.647Z,100166.88
2022-10-30T22:11:18.908Z,100160.97
2022-10-30T22:13:47.941Z,100160.25
2022-10-30T22:16:21.889Z,100160.56
2022-10-30T22:18:49.090Z,100172.25
2022-10-30T22:21:19.256Z,100167.19
2022-10-30T22:23:49.819Z,100174.28
2022-10-30T22:26:20.777Z,100165.00
2022-10-30T22:28:48.422Z,100171.13
2022-10-30T22:31:18.211Z,100171.25
2022-10-30T22:33:46.692Z,100174.03
2022-10-30T22:36:15.851Z,100171.38
2022-10-30T22:38:43.302Z,100169.69
2022-10-30T22:41:17.720Z,100174.50
2022-10-30T22:43:47.158Z,100174.72
2022-10-30T22:46:16.844Z,100178.31
2022-10-30T22:48:45.344Z,100174.94
2022-10-30T22:51:16.443Z,100183.03
2022-10-30T22:53:45.996Z,100179.72
2022-10-30T22:56:20.748Z,100186.84
2022-10-30T22:58:50.450Z,100200.34
2022-10-30T23:01:20.158Z,100193.34
2022-10-30T23:03:47.282Z,100195.38
2022-10-30T23:06:14.345Z,100196.31
2022-10-30T23:08:41.810Z,100203.47
2022-10-30T23:11:09.844Z,100217.78
2022-10-30T23:13:37.500Z,100213.44
2022-10-30T23:16:10.058Z,100208.34
2022-10-30T23:18:37.021Z,100228.72
2022-10-30T23:21:07.409Z,100220.97
2022-10-30T23:23:38.734Z,100219.38
2022-10-30T23:26:30.279Z,100221.19
2022-10-30T23:28:59.408Z,100234.69
2022-10-30T23:31:29.050Z,100238.31
2022-10-30T23:33:59.994Z,100237.44
2022-10-30T23:36:28.025Z,100242.13
2022-10-30T23:38:58.489Z,100241.69
2022-10-30T23:41:28.826Z,100245.84
2022-10-30T23:44:00.321Z,100255.69
2022-10-30T23:46:27.890Z,100255.88
2022-10-30T23:48:55.581Z,100262.16
2022-10-30T23:51:22.905Z,100258.78
2022-10-30T23:53:50.366Z,100256.13
2022-10-30T23:56:17.530Z,100237.69
2022-10-30T23:58:46.779Z,100252.72
